createdAt,value
2019-03-19T00:02:27.951Z,19.30
2019-03-19T00:04:56.956Z,13.30
2019-03-19T00:07:25.947Z,13.33
2019-03-19T00:09:54.999Z,20.37
2019-03-19T00:12:23.997Z,20.10
2019-03-19T00:14:53.123Z,15.53
2019-03-19T00:17:22.130Z,18.20
2019-03-19T00:19:51.266Z,22.40
2019-03-19T00:22:20.334Z,15.17
2019-03-19T00:24:49.609Z,22.83
2019-03-19T00:27:18.678Z,23.17
2019-03-19T00:29:47.933Z,19.07
2019-03-19T00:32:17.049Z,23.33
2019-03-19T00:34:46.201Z,25.43
2019-03-19T00:37:15.238Z,17.73
2019-03-19T00:39:44.222Z,19.93
2019-03-19T00:42:13.457Z,18.83
2019-03-19T00:44:42.632Z,27.83
2019-03-19T00:47:11.671Z,23.30
2019-03-19T00:49:40.661Z,14.07
2019-03-19T00:52:09.664Z,28.07
2019-03-19T00:54:38.671Z,18.17
2019-03-19T00:57:07.690Z,26.53
2019-03-19T00:59:36.738Z,24.53
2019-03-19T01:02:05.759Z,22.07
2019-03-19T01:04:34.776Z,21.73
2019-03-19T01:07:03.880Z,14.90
2019-03-19T01:09:32.929Z,20.67
2019-03-19T01:12:01.949Z,22.90
2019-03-19T01:14:30.969Z,21.37
2019-03-19T01:17:00.009Z,17.60
2019-03-19T01:19:28.957Z,24.87
2019-03-19T01:21:57.891Z,20.97
2019-03-19T01:24:27.011Z,20.33
2019-03-19T01:26:56.007Z,16.90
2019-03-19T01:29:25.031Z,19.93
2019-03-19T01:31:54.021Z,13.40
2019-03-19T01:34:23.038Z,18.70
2019-03-19T01:36:52.083Z,21.40
2019-03-19T01:39:21.094Z,20.20
2019-03-19T01:41:50.093Z,25.73
2019-03-19T01:44:19.172Z,17.63
2019-03-19T01:46:48.155Z,27.20
2019-03-19T01:49:17.167Z,27.73
2019-03-19T01:51:46.172Z,23.30
2019-03-19T01:54:15.172Z,24.70
2019-03-19T01:56:44.190Z,32.30
2019-03-19T01:59:38.210Z,17.10
2019-03-19T02:02:07.205Z,26.00
2019-03-19T02:04:36.307Z,26.37
2019-03-19T02:07:05.296Z,20.30
2019-03-19T02:09:34.315Z,23.03
2019-03-19T02:12:03.317Z,23.37
2019-03-19T02:14:32.349Z,19.30
2019-03-19T02:17:01.339Z,18.50
2019-03-19T02:19:30.375Z,18.43
2019-03-19T02:21:59.372Z,25.73
2019-03-19T02:24:28.740Z,14.90
2019-03-19T02:26:57.746Z,19.93
2019-03-19T02:29:26.770Z,25.07
2019-03-19T02:31:55.765Z,22.03
2019-03-19T02:34:24.853Z,27.40
2019-03-19T02:36:53.895Z,19.73
2019-03-19T02:39:22.887Z,19.93
2019-03-19T02:41:51.918Z,14.40
2019-03-19T02:44:20.932Z,22.00
2019-03-19T02:46:49.963Z,25.67
2019-03-19T02:49:18.981Z,22.80
2019-03-19T02:51:48.041Z,20.70
2019-03-19T02:54:17.083Z,19.90
2019-03-19T02:56:46.147Z,21.67
2019-03-19T02:59:15.351Z,17.73
2019-03-19T03:01:44.482Z,25.90
2019-03-19T03:04:13.488Z,26.30
2019-03-19T03:06:42.527Z,24.40
2019-03-19T03:09:11.625Z,20.23
2019-03-19T03:11:40.659Z,23.73
2019-03-19T03:14:09.674Z,14.87
2019-03-19T03:16:38.722Z,24.73
2019-03-19T03:19:07.826Z,23.60
2019-03-19T03:21:36.870Z,22.33
2019-03-19T03:27:35.910Z,25.07
2019-03-19T03:30:06.503Z,22.77
2019-03-19T03:32:35.526Z,24.07
2019-03-19T03:38:01.012Z,24.57
2019-03-19T03:40:29.969Z,26.07
2019-03-19T03:42:59.004Z,18.60
2019-03-19T03:45:28.058Z,22.07
2019-03-19T03:47:57.095Z,18.93
2019-03-19T03:50:26.147Z,27.73
2019-03-19T03:52:55.206Z,24.13
2019-03-19T03:55:24.235Z,31.83
2019-03-19T03:57:53.283Z,23.53
2019-03-19T04:00:22.995Z,28.93
2019-03-19T04:02:51.998Z,27.00
2019-03-19T04:05:21.035Z,25.20
2019-03-19T04:07:50.387Z,22.93
2019-03-19T04:10:19.736Z,23.63
2019-03-19T04:12:49.051Z,25.43
2019-03-19T04:15:43.692Z,26.50
2019-03-19T04:18:12.730Z,24.83
2019-03-19T04:20:41.779Z,29.07
2019-03-19T04:23:10.825Z,22.67
2019-03-19T04:25:39.748Z,27.20
2019-03-19T04:28:08.788Z,26.67
2019-03-19T04:30:37.823Z,22.27
2019-03-19T04:33:06.919Z,30.73
2019-03-19T04:35:35.949Z,30.03
2019-03-19T04:38:05.005Z,28.63
2019-03-19T04:40:34.102Z,22.67
2019-03-19T04:43:03.202Z,21.17
2019-03-19T04:45:32.221Z,27.03
2019-03-19T04:48:03.482Z,21.27
2019-03-19T04:50:31.961Z,26.00
2019-03-19T04:53:01.097Z,26.40
2019-03-19T04:55:30.118Z,20.83
2019-03-19T04:57:59.120Z,29.43
2019-03-19T05:00:28.141Z,27.87
2019-03-19T05:02:57.189Z,23.53
2019-03-19T05:05:26.205Z,21.30
2019-03-19T05:07:55.209Z,35.07
2019-03-19T05:10:24.225Z,30.63
2019-03-19T05:13:12.577Z,36.37
2019-03-19T05:15:41.621Z,29.87
2019-03-19T05:18:10.687Z,22.97
2019-03-19T05:20:39.715Z,25.80
2019-03-19T05:23:08.748Z,18.47
2019-03-19T05:25:37.775Z,30.10
2019-03-19T05:28:06.776Z,28.10
2019-03-19T05:30:35.800Z,28.80
2019-03-19T05:33:04.962Z,22.47
2019-03-19T05:35:34.001Z,25.07
2019-03-19T05:38:03.095Z,24.97
2019-03-19T05:40:32.200Z,31.13
2019-03-19T05:43:21.569Z,28.40
2019-03-19T05:45:50.644Z,32.83
2019-03-19T05:48:19.643Z,24.40
2019-03-19T05:50:48.668Z,24.33
2019-03-19T05:53:17.753Z,19.57
2019-03-19T05:55:46.768Z,15.80
2019-03-19T05:58:15.794Z,27.50
2019-03-19T06:00:44.828Z,22.27
2019-03-19T06:03:13.912Z,22.10
2019-03-19T06:05:42.934Z,25.13
2019-03-19T06:08:11.974Z,11.30
2019-03-19T06:10:41.035Z,17.00
2019-03-19T06:13:10.065Z,17.53
2019-03-19T06:15:39.115Z,21.00
2019-03-19T06:18:08.401Z,17.57
2019-03-19T06:20:37.464Z,17.27
2019-03-19T06:23:06.504Z,16.00
2019-03-19T06:25:35.533Z,16.07
2019-03-19T06:28:04.556Z,17.60
2019-03-19T06:30:33.510Z,12.63
2019-03-19T06:33:02.539Z,19.80
2019-03-19T06:35:31.571Z,17.60
2019-03-19T06:38:00.625Z,19.17
2019-03-19T06:40:29.617Z,20.80
2019-03-19T06:42:58.758Z,27.57
2019-03-19T06:45:27.816Z,16.37
2019-03-19T06:47:56.829Z,12.30
2019-03-19T06:50:27.999Z,13.20
2019-03-19T06:52:56.523Z,15.33
2019-03-19T06:55:25.569Z,15.83
2019-03-19T06:57:54.596Z,22.70
2019-03-19T07:00:23.883Z,24.30
2019-03-19T07:02:52.976Z,18.40
2019-03-19T07:05:22.237Z,20.10
2019-03-19T07:07:51.300Z,19.43
2019-03-19T07:10:20.585Z,17.37
2019-03-19T07:12:49.615Z,19.93
2019-03-19T07:15:19.112Z,17.53
2019-03-19T07:17:48.142Z,14.83
2019-03-19T07:20:17.833Z,16.40
2019-03-19T07:22:46.925Z,14.57
2019-03-19T07:25:15.974Z,21.93
2019-03-19T07:27:45.084Z,15.00
2019-03-19T07:30:15.643Z,13.30
2019-03-19T07:32:44.659Z,13.93
2019-03-19T07:35:13.767Z,16.40
2019-03-19T07:37:42.775Z,14.67
2019-03-19T07:40:12.383Z,17.00
2019-03-19T07:42:41.510Z,19.07
2019-03-19T07:45:12.060Z,19.47
2019-03-19T07:47:41.093Z,17.77
2019-03-19T07:50:11.302Z,16.97
2019-03-19T07:52:40.311Z,18.13
2019-03-19T07:55:09.535Z,15.70
2019-03-19T07:57:38.598Z,18.67
2019-03-19T08:00:09.402Z,24.27
2019-03-19T08:02:38.494Z,17.90
2019-03-19T08:05:08.508Z,15.63
2019-03-19T08:07:37.630Z,19.87
2019-03-19T08:10:08.443Z,14.50
2019-03-19T08:12:37.486Z,19.03
2019-03-19T08:15:08.149Z,17.27
2019-03-19T08:17:37.191Z,19.97
2019-03-19T08:20:07.664Z,15.30
2019-03-19T08:22:36.741Z,14.70
2019-03-19T08:25:08.802Z,14.60
2019-03-19T08:27:38.052Z,17.13
2019-03-19T08:30:08.666Z,21.67
2019-03-19T08:32:37.713Z,16.10
2019-03-19T08:35:06.834Z,17.20
2019-03-19T08:37:35.865Z,14.60
2019-03-19T08:40:06.453Z,22.00
2019-03-19T08:42:35.473Z,12.27
2019-03-19T08:45:06.036Z,14.37
2019-03-19T08:47:35.112Z,14.83
2019-03-19T08:50:06.002Z,19.33
2019-03-19T08:52:35.177Z,21.57
2019-03-19T08:55:05.184Z,18.60
2019-03-19T08:57:34.253Z,18.40
2019-03-19T09:00:04.802Z,13.57
2019-03-19T09:02:35.396Z,13.77
2019-03-19T09:05:05.572Z,14.27
2019-03-19T09:07:34.611Z,18.77
2019-03-19T09:10:05.276Z,14.57
2019-03-19T09:12:34.322Z,14.73
2019-03-19T09:15:03.697Z,15.13
2019-03-19T09:17:32.755Z,13.50
2019-03-19T09:20:01.725Z,17.97
2019-03-19T09:22:31.005Z,17.03
2019-03-19T09:25:00.041Z,19.40
2019-03-19T09:27:29.090Z,17.47
2019-03-19T09:29:58.172Z,13.57
2019-03-19T09:32:27.308Z,19.40
2019-03-19T09:34:56.329Z,16.53
2019-03-19T09:37:25.410Z,16.10
2019-03-19T09:39:54.634Z,18.63
2019-03-19T09:42:23.672Z,16.73
2019-03-19T09:44:58.368Z,17.80
2019-03-19T09:47:23.432Z,13.17
2019-03-19T09:49:52.450Z,16.83
2019-03-19T09:52:21.578Z,19.50
2019-03-19T09:54:50.684Z,16.07
2019-03-19T09:57:20.128Z,14.83
2019-03-19T09:59:49.224Z,18.23
2019-03-19T10:02:18.230Z,14.83
2019-03-19T10:04:47.255Z,17.17
2019-03-19T10:07:16.287Z,12.37
2019-03-19T10:09:45.389Z,12.97
2019-03-19T10:12:14.411Z,12.20
2019-03-19T10:14:43.433Z,12.93
2019-03-19T10:17:12.523Z,15.17
2019-03-19T10:19:41.600Z,9.73
2019-03-19T10:22:10.638Z,11.10
2019-03-19T10:24:39.686Z,7.17
2019-03-19T10:27:08.816Z,8.67
2019-03-19T10:29:38.780Z,11.67
2019-03-19T10:32:08.212Z,10.57
2019-03-19T10:34:37.268Z,8.90
2019-03-19T10:37:07.256Z,10.23
2019-03-19T10:39:36.296Z,8.43
2019-03-19T10:42:05.306Z,10.43
2019-03-19T10:44:34.334Z,8.77
2019-03-19T10:47:03.368Z,10.73
2019-03-19T10:49:32.430Z,10.43
2019-03-19T10:52:01.599Z,8.00
2019-03-19T10:54:30.697Z,7.90
2019-03-19T10:56:59.767Z,6.07
2019-03-19T10:59:28.806Z,6.20
2019-03-19T11:01:58.158Z,8.80
2019-03-19T11:04:27.930Z,8.90
2019-03-19T11:06:57.318Z,8.93
2019-03-19T11:09:26.731Z,8.03
2019-03-19T11:11:56.058Z,9.30
2019-03-19T11:14:25.617Z,12.47
2019-03-19T11:16:55.238Z,6.93
2019-03-19T11:19:24.335Z,6.57
2019-03-19T11:21:53.493Z,12.33
2019-03-19T11:24:22.628Z,5.90
2019-03-19T11:26:51.674Z,5.47
2019-03-19T11:29:20.686Z,7.53
2019-03-19T11:31:50.609Z,6.77
2019-03-19T11:34:19.660Z,7.57
2019-03-19T11:36:57.374Z,12.50
2019-03-19T11:39:19.459Z,10.23
2019-03-19T11:41:49.375Z,10.23
2019-03-19T11:44:18.403Z,11.93
2019-03-19T11:46:47.536Z,9.90
2019-03-19T11:49:16.543Z,11.23
2019-03-19T11:51:45.562Z,8.57
2019-03-19T11:54:14.606Z,9.60
2019-03-19T11:56:43.681Z,13.47
2019-03-19T11:59:12.673Z,15.40
2019-03-19T12:01:41.777Z,8.23
2019-03-19T12:04:10.791Z,8.17
2019-03-19T12:06:39.937Z,11.47
2019-03-19T12:09:09.121Z,9.27
2019-03-19T12:11:38.902Z,5.97
2019-03-19T12:14:15.349Z,10.50
2019-03-19T12:16:44.426Z,6.43
2019-03-19T12:19:13.543Z,7.77
2019-03-19T12:21:42.583Z,7.33
2019-03-19T12:24:11.800Z,10.67
2019-03-19T12:26:44.274Z,8.17
2019-03-19T12:29:13.399Z,11.33
2019-03-19T12:31:42.433Z,7.50
2019-03-19T12:34:11.637Z,9.93
2019-03-19T12:36:40.681Z,10.33
2019-03-19T12:39:09.933Z,7.50
2019-03-19T12:41:38.979Z,5.97
2019-03-19T12:44:07.985Z,10.03
2019-03-19T12:46:45.920Z,9.87
2019-03-19T12:49:15.171Z,13.47
2019-03-19T12:51:44.405Z,8.73
2019-03-19T12:54:13.497Z,4.07
2019-03-19T12:56:42.556Z,8.97
2019-03-19T12:59:19.853Z,9.33
2019-03-19T13:01:46.413Z,5.03
2019-03-19T13:04:15.672Z,6.33
2019-03-19T13:06:44.723Z,10.30
2019-03-19T13:09:13.754Z,10.63
2019-03-19T13:11:42.946Z,6.13
2019-03-19T13:14:12.156Z,5.70
2019-03-19T13:16:42.902Z,10.87
2019-03-19T13:19:13.152Z,9.70
2019-03-19T13:21:42.204Z,11.93
2019-03-19T13:24:20.313Z,4.20
2019-03-19T13:26:49.342Z,8.43
2019-03-19T13:29:19.445Z,10.20
2019-03-19T13:31:48.493Z,8.43
2019-03-19T13:34:17.506Z,8.43
2019-03-19T13:36:47.542Z,6.47
2019-03-19T13:39:16.533Z,13.17
2019-03-19T13:41:45.543Z,4.80
2019-03-19T13:44:14.595Z,7.07
2019-03-19T13:46:43.625Z,6.60
2019-03-19T13:49:12.617Z,4.33
2019-03-19T13:51:41.632Z,4.47
2019-03-19T13:54:10.639Z,6.43
2019-03-19T13:56:39.704Z,9.30
2019-03-19T13:59:08.630Z,6.57
2019-03-19T14:01:37.636Z,6.37
2019-03-19T14:04:06.636Z,6.43
2019-03-19T14:06:35.717Z,5.47
2019-03-19T14:09:06.292Z,10.30
2019-03-19T14:11:35.352Z,11.63
2019-03-19T14:14:04.449Z,8.87
2019-03-19T14:16:33.471Z,9.87
2019-03-19T14:19:02.525Z,7.83
2019-03-19T14:21:31.519Z,10.27
2019-03-19T14:24:00.554Z,8.03
2019-03-19T14:26:29.551Z,9.83
2019-03-19T14:28:58.576Z,11.57
2019-03-19T14:31:27.595Z,7.00
2019-03-19T14:33:56.613Z,6.20
2019-03-19T14:36:25.656Z,10.07
2019-03-19T14:38:54.646Z,7.20
2019-03-19T14:41:23.635Z,8.60
2019-03-19T14:43:52.663Z,10.07
2019-03-19T14:46:21.692Z,8.43
2019-03-19T14:48:50.708Z,7.57
2019-03-19T14:51:19.878Z,10.47
2019-03-19T14:53:49.953Z,10.57
2019-03-19T14:56:18.884Z,8.80
2019-03-19T14:58:47.913Z,8.40
2019-03-19T15:01:19.615Z,8.60
2019-03-19T15:03:47.642Z,6.40
2019-03-19T15:09:32.672Z,6.20
2019-03-19T15:12:01.735Z,9.23
2019-03-19T15:14:30.770Z,7.37
2019-03-19T15:17:04.767Z,6.40
2019-03-19T15:19:30.672Z,8.43
2019-03-19T15:21:59.611Z,6.33
2019-03-19T15:24:28.726Z,7.83
2019-03-19T15:26:57.652Z,7.57
2019-03-19T15:29:26.626Z,7.00
2019-03-19T15:31:56.605Z,11.23
2019-03-19T15:34:25.748Z,8.33
